Swinomish — WC5223 — position and weather

sailwx.info

Track history (hours):
 
Tides and Currents Weather Stations Pressure Air Temp Water Temp Dewpoint Dewpoint Depression Visibility Wind Speed Wind Dir Waves Ship Positions

Swinomish

Owner: DUNLAP TOWING CO, LA CONNER, WA. More information available from US FCC via Universal Licensing System and Coast Guard Vessel Documentation Center.

Last reported at 2014-Oct-02 14:26 UTC. Time now 2014-Oct-02 16:30 UTC.
Position N 48°15' W 122°33'.

Length 15 m; draft 3.5 m.

Type: Tug. MMSI: 366972050.

Date/timePositionNaut miles runAvg speedWind from/ knotsBaromVisibWave heightAir tempDewpointWater temp
2014-Oct-02 14:26N 48°15' W 122°33'2 2.3
2014-Oct-02 13:33N 48°16' W 122°31'2 2.4
2014-Oct-02 12:33N 48°18' W 122°30'4 3.6
2014-Oct-02 11:33N 48°21' W 122°33'2 2.1
2014-Oct-02 10:30N 48°23' W 122°35'1 0.9
2014-Oct-02 09:15N 48°24' W 122°35'1 1.5
2014-Oct-02 08:28N 48°25' W 122°35'1 1.0
2014-Oct-02 07:33N 48°26' W 122°34'4 4.4
2014-Oct-02 06:33N 48°22' W 122°33'3 0.2
2014-Oct-01 16:27N 48°24' W 122°30'0 0.0
2014-Oct-01 15:30N 48°24' W 122°30'3 3.1
2014-Oct-01 14:24N 48°24' W 122°35'2 2.6
2014-Oct-01 13:33N 48°26' W 122°34'0 0.1
2014-Oct-01 12:32N 48°26' W 122°34'1 0.8
2014-Oct-01 11:14N 48°25' W 122°35'2 2.0
2014-Oct-01 10:29N 48°25' W 122°37'1 1.4
2014-Oct-01 09:32N 48°24' W 122°39'0 0.5
2014-Oct-01 08:32N 48°25' W 122°40'0 0.5
2014-Oct-01 07:33N 48°25' W 122°40'2 2.0
2014-Oct-01 06:33N 48°26' W 122°42'2 2.5
2014-Oct-01 05:34N 48°29' W 122°43'2 1.8
2014-Oct-01 04:34N 48°30' W 122°45'1 1.3
2014-Oct-01 03:33N 48°31' W 122°46'1 1.2
2014-Oct-01 02:34N 48°32' W 122°48'1 0.8
2014-Oct-01 01:34N 48°32' W 122°49'1 0.6
2014-Oct-01 00:33N 48°32' W 122°50'1 0.7
2014-Sep-30 23:33N 48°32' W 122°50'1 1.0
2014-Sep-30 22:33N 48°33' W 122°51'1 1.2
2014-Sep-30 21:34N 48°34' W 122°52'1 1.3
2014-Sep-30 20:34N 48°35' W 122°54'2 1.7
2014-Sep-30 19:33N 48°35' W 122°56'2 1.6
2014-Sep-30 18:33N 48°36' W 122°58'1 1.1
2014-Sep-30 17:33N 48°35' W 122°60'1 0.8
2014-Sep-30 16:34N 48°36' W 123°01'0 0.3
2014-Sep-30 15:33N 48°36' W 123°00'0 0.0
2014-Sep-30 14:33N 48°36' W 123°00'0 0.0
2014-Sep-30 13:33N 48°36' W 123°00'0 0.0
2014-Sep-30 12:34N 48°36' W 123°00'0 0.0
2014-Sep-30 11:33N 48°36' W 123°00'0 0.0
2014-Sep-30 10:33N 48°36' W 123°00'0 0.0
2014-Sep-30 09:34N 48°36' W 123°00'0 0.0
2014-Sep-30 08:34N 48°36' W 123°00'0 0.0
2014-Sep-30 07:33N 48°36' W 123°00'0 0.0
2014-Sep-30 06:33N 48°36' W 123°00'0 0.0
2014-Sep-30 05:34N 48°36' W 123°00'0 0.0
2014-Sep-30 04:33N 48°36' W 123°00'0 0.0
2014-Sep-30 03:33N 48°36' W 123°00'0 0.0
2014-Sep-30 02:34N 48°36' W 123°00'0 0.1
2014-Sep-30 01:33N 48°36' W 123°00'0 0.0
2014-Sep-30 00:33N 48°36' W 123°00'0 0.0
2014-Sep-29 23:33N 48°36' W 123°00'0 0.0
2014-Sep-29 22:34N 48°36' W 123°00'0 0.0
2014-Sep-29 21:33N 48°36' W 123°00'0 0.0
2014-Sep-29 20:34N 48°36' W 123°00'0 0.0
2014-Sep-29 19:33N 48°36' W 123°00'0 0.0
2014-Sep-29 18:32N 48°36' W 123°00'0 0.0
2014-Sep-29 17:33N 48°36' W 123°00'0 0.0
2014-Sep-29 16:33N 48°36' W 123°00'0 0.0
2014-Sep-29 15:34N 48°36' W 123°00'0 0.0
2014-Sep-29 14:33N 48°36' W 123°00'0 0.0
2014-Sep-29 13:34N 48°36' W 123°00'0 0.0
2014-Sep-29 12:33N 48°36' W 123°00'0 0.0
2014-Sep-29 11:34N 48°36' W 123°00'0 0.0
2014-Sep-29 10:33N 48°36' W 123°00'0 0.0
2014-Sep-29 09:34N 48°36' W 123°00'0 0.0
2014-Sep-29 08:33N 48°36' W 123°00'0 0.0
2014-Sep-29 07:33N 48°36' W 123°00'0 0.0
2014-Sep-29 06:34N 48°36' W 123°00'0 0.0
2014-Sep-29 05:33N 48°36' W 123°00'0 0.0
2014-Sep-29 04:34N 48°36' W 123°00'0 0.0
2014-Sep-29 03:33N 48°36' W 123°00'0 0.0
2014-Sep-29 02:34N 48°36' W 123°00'0 0.0
2014-Sep-29 01:34N 48°36' W 123°00'0 0.0
2014-Sep-29 00:33N 48°36' W 123°00'0 0.0
2014-Sep-28 23:33N 48°36' W 123°00'0 0.0
2014-Sep-28 22:33N 48°36' W 123°00'0 0.1
2014-Sep-28 21:33N 48°36' W 123°00'0 0.0
2014-Sep-28 20:33N 48°36' W 123°00'0 0.0
2014-Sep-28 19:33N 48°36' W 123°00'1 0.8
2014-Sep-28 18:33N 48°36' W 123°02'2 1.7
2014-Sep-28 17:33N 48°38' W 123°02'2 2.1
2014-Sep-28 16:33N 48°40' W 123°00'2 1.6
2014-Sep-28 15:33N 48°41' W 122°59'1 1.3
2014-Sep-28 14:33N 48°43' W 122°59'1 1.3
2014-Sep-28 13:33N 48°44' W 122°60'2 1.8
2014-Sep-28 12:33N 48°45' W 123°02'3 2.8
2014-Sep-28 11:29N 48°43' W 123°06'2 1.9
2014-Sep-28 10:33N 48°43' W 123°08'1 0.9
2014-Sep-28 09:33N 48°44' W 123°09'1 1.3
2014-Sep-28 08:33N 48°45' W 123°10'1 1.1
2014-Sep-28 07:31N 48°46' W 123°11'1 0.9
2014-Sep-28 06:31N 48°46' W 123°12'1 0.8
2014-Sep-28 05:25N 48°47' W 123°13'1 0.6
2014-Sep-28 04:25N 48°47' W 123°14'0 0.3
2014-Sep-28 03:23N 48°47' W 123°14'0 0.0
2014-Sep-28 02:32N 48°47' W 123°14'0 0.0
2014-Sep-28 01:32N 48°47' W 123°14'0 0.0
2014-Sep-28 00:32N 48°47' W 123°14'0 0.0
2014-Sep-27 23:32N 48°47' W 123°14'0 0.0
2014-Sep-27 22:26N 48°47' W 123°14'0 0.0
2014-Sep-27 21:29N 48°47' W 123°14'0 0.0
2014-Sep-27 20:32N 48°47' W 123°14'0 0.0
2014-Sep-27 19:26N 48°47' W 123°14'0 0.1
2014-Sep-27 18:32N 48°47' W 123°14'0 0.0
2014-Sep-27 17:29N 48°47' W 123°14'0 0.0
2014-Sep-27 16:05N 48°47' W 123°14'0 0.0
2014-Sep-27 15:32N 48°47' W 123°14'0 0.0
2014-Sep-27 12:09N 48°47' W 123°14'0 0.1
2014-Sep-27 11:32N 48°47' W 123°14'1 0.9
2014-Sep-27 10:30N 48°48' W 123°15'2 1.1
2014-Sep-27 08:21N 48°49' W 123°18'3 2.3
2014-Sep-27 07:10N 48°51' W 123°22'2 1.6
2014-Sep-27 06:14N 48°51' W 123°24'1 1.3
2014-Sep-27 05:33N 48°52' W 123°25'0 0.2
2014-Sep-27 04:33N 48°52' W 123°25'1 0.6
2014-Sep-27 03:33N 48°52' W 123°26'1 1.3
2014-Sep-27 02:33N 48°53' W 123°27'1 0.8
2014-Sep-27 01:29N 48°54' W 123°28'1 0.7
2014-Sep-27 00:31N 48°54' W 123°29'1 0.6
2014-Sep-26 23:33N 48°55' W 123°29'1 1.0
2014-Sep-26 22:29N 48°55' W 123°30'1 1.1
2014-Sep-26 21:33N 48°56' W 123°32'1 1.1
2014-Sep-26 20:31N 48°57' W 123°33'1 1.3
2014-Sep-26 19:31N 48°58' W 123°34'2 2.0
2014-Sep-26 18:33N 48°60' W 123°36'1 1.3
2014-Sep-26 17:28N 49°01' W 123°37'1 0.8
2014-Sep-26 16:19N 49°01' W 123°38'1 0.8
2014-Sep-26 15:30N 49°02' W 123°39'1 1.0
2014-Sep-26 14:27N 49°03' W 123°40'1 1.4
2014-Sep-26 13:32N 49°04' W 123°40'1 1.3
2014-Sep-26 12:30N 49°05' W 123°42'1 1.3
2014-Sep-26 11:33N 49°06' W 123°43'1 0.9
2014-Sep-26 10:31N 49°07' W 123°43'0 0.2
2014-Sep-26 09:32N 49°07' W 123°43'0 0.0
2014-Sep-26 08:10N 49°07' W 123°43'0 0.0
2014-Sep-26 07:10N 49°07' W 123°43'710.2
2014-Sep-26 06:31N 49°01' W 123°37'1110.2
2014-Sep-26 05:29N 48°53' W 123°27'910.0
2014-Sep-26 04:33N 48°48' W 123°15'1110.9
2014-Sep-26 03:30N 48°44' W 122°59'1010.1
2014-Sep-26 02:33N 48°41' W 122°45'1010.4
2014-Sep-26 01:33N 48°33' W 122°34'9 8.5
2014-Sep-26 00:33N 48°25' W 122°30'1 0.9
2014-Sep-25 23:18N 48°24' W 122°30'0 0.0
2014-Sep-25 22:30N 48°24' W 122°30'15 7.8
2014-Sep-25 20:32N 48°09' W 122°32'1210.9
2014-Sep-25 19:29N 48°02' W 122°19'5 5.1
2014-Sep-25 18:33N 47°59' W 122°13'0 0.0
2014-Sep-25 17:33N 47°59' W 122°13'0 0.0
2014-Sep-25 16:33N 47°59' W 122°13'0 0.0
2014-Sep-25 15:33N 47°59' W 122°13'0 0.0
2014-Sep-25 14:33N 47°59' W 122°13'0 0.0
2014-Sep-25 13:33N 47°59' W 122°13'0 0.0
2014-Sep-25 12:33N 47°59' W 122°13'0 0.0
2014-Sep-25 11:33N 47°59' W 122°13'0 0.0
2014-Sep-25 10:33N 47°59' W 122°13'0 0.0
2014-Sep-25 09:33N 47°59' W 122°13'0 0.0
2014-Sep-25 08:33N 47°59' W 122°13'0 0.0
2014-Sep-25 07:33N 47°59' W 122°13'0 0.0
2014-Sep-25 06:25N 47°59' W 122°13'0 0.0
2014-Sep-25 05:33N 47°59' W 122°13'9 9.1
2014-Sep-25 04:33N 47°52' W 122°22'1211.7
2014-Sep-25 03:33N 47°41' W 122°27'1211.6
2014-Sep-25 02:33N 47°30' W 122°30'1111.3
2014-Sep-25 01:33N 47°18' W 122°33'13 9.1
2014-Sep-25 00:09N 47°10' W 122°47'7 3.5
2014-Sep-24 22:08N 47°05' W 122°55'1 2.3
2014-Sep-24 21:33N 47°07' W 122°55'3 2.1
2014-Sep-24 20:20N 47°09' W 122°54'25 0.6
2014-Sep-23 03:26N 47°25' W 122°25'1 1.7
2014-Sep-23 02:33N 47°27' W 122°25'1 1.4
2014-Sep-23 01:33N 47°28' W 122°26'2 1.5
2014-Sep-23 00:33N 47°30' W 122°27'2 1.5
2014-Sep-22 23:33N 47°31' W 122°27'2 1.9
2014-Sep-22 22:33N 47°33' W 122°28'2 1.9
2014-Sep-22 21:33N 47°35' W 122°28'2 1.9
2014-Sep-22 20:33N 47°37' W 122°29'2 2.2
2014-Sep-22 19:33N 47°39' W 122°29'2 1.8
2014-Sep-22 18:31N 47°41' W 122°30'1 1.5
2014-Sep-22 17:33N 47°42' W 122°30'1 1.5
2014-Sep-22 16:33N 47°43' W 122°29'1 1.1
2014-Sep-22 15:33N 47°44' W 122°28'1 0.5
2014-Sep-22 14:33N 47°45' W 122°28'  
Track history (hours):
 
Tides and Currents Weather Stations Pressure Air Temp Water Temp Dewpoint Dewpoint Depression Visibility Wind Speed Wind Dir Waves Ship Positions

Swinomish

Owner: DUNLAP TOWING CO, LA CONNER, WA. More information available from US FCC via Universal Licensing System and Coast Guard Vessel Documentation Center.

Last reported at 2014-Oct-02 14:26 UTC. Time now 2014-Oct-02 16:30 UTC.
Position N 48°15' W 122°33'.

Length 15 m; draft 3.5 m.

Type: Tug. MMSI: 366972050.

Date/timePositionNaut miles runAvg speedWind from/ knotsBaromVisibWave heightAir tempDewpointWater temp
2014-Oct-02 14:26N 48°15' W 122°33'2 2.3
2014-Oct-02 13:33N 48°16' W 122°31'2 2.4
2014-Oct-02 12:33N 48°18' W 122°30'4 3.6
2014-Oct-02 11:33N 48°21' W 122°33'2 2.1
2014-Oct-02 10:30N 48°23' W 122°35'1 0.9
2014-Oct-02 09:15N 48°24' W 122°35'1 1.5
2014-Oct-02 08:28N 48°25' W 122°35'1 1.0
2014-Oct-02 07:33N 48°26' W 122°34'4 4.4
2014-Oct-02 06:33N 48°22' W 122°33'3 0.2
2014-Oct-01 16:27N 48°24' W 122°30'0 0.0
2014-Oct-01 15:30N 48°24' W 122°30'3 3.1
2014-Oct-01 14:24N 48°24' W 122°35'2 2.6
2014-Oct-01 13:33N 48°26' W 122°34'0 0.1
2014-Oct-01 12:32N 48°26' W 122°34'1 0.8
2014-Oct-01 11:14N 48°25' W 122°35'2 2.0
2014-Oct-01 10:29N 48°25' W 122°37'1 1.4
2014-Oct-01 09:32N 48°24' W 122°39'0 0.5
2014-Oct-01 08:32N 48°25' W 122°40'0 0.5
2014-Oct-01 07:33N 48°25' W 122°40'2 2.0
2014-Oct-01 06:33N 48°26' W 122°42'2 2.5
2014-Oct-01 05:34N 48°29' W 122°43'2 1.8
2014-Oct-01 04:34N 48°30' W 122°45'1 1.3
2014-Oct-01 03:33N 48°31' W 122°46'1 1.2
2014-Oct-01 02:34N 48°32' W 122°48'1 0.8
2014-Oct-01 01:34N 48°32' W 122°49'1 0.6
2014-Oct-01 00:33N 48°32' W 122°50'1 0.7
2014-Sep-30 23:33N 48°32' W 122°50'1 1.0
2014-Sep-30 22:33N 48°33' W 122°51'1 1.2
2014-Sep-30 21:34N 48°34' W 122°52'1 1.3
2014-Sep-30 20:34N 48°35' W 122°54'2 1.7
2014-Sep-30 19:33N 48°35' W 122°56'2 1.6
2014-Sep-30 18:33N 48°36' W 122°58'1 1.1
2014-Sep-30 17:33N 48°35' W 122°60'1 0.8
2014-Sep-30 16:34N 48°36' W 123°01'0 0.3
2014-Sep-30 15:33N 48°36' W 123°00'0 0.0
2014-Sep-30 14:33N 48°36' W 123°00'0 0.0
2014-Sep-30 13:33N 48°36' W 123°00'0 0.0
2014-Sep-30 12:34N 48°36' W 123°00'0 0.0
2014-Sep-30 11:33N 48°36' W 123°00'0 0.0
2014-Sep-30 10:33N 48°36' W 123°00'0 0.0
2014-Sep-30 09:34N 48°36' W 123°00'0 0.0
2014-Sep-30 08:34N 48°36' W 123°00'0 0.0
2014-Sep-30 07:33N 48°36' W 123°00'0 0.0
2014-Sep-30 06:33N 48°36' W 123°00'0 0.0
2014-Sep-30 05:34N 48°36' W 123°00'0 0.0
2014-Sep-30 04:33N 48°36' W 123°00'0 0.0
2014-Sep-30 03:33N 48°36' W 123°00'0 0.0
2014-Sep-30 02:34N 48°36' W 123°00'0 0.1
2014-Sep-30 01:33N 48°36' W 123°00'0 0.0
2014-Sep-30 00:33N 48°36' W 123°00'0 0.0
2014-Sep-29 23:33N 48°36' W 123°00'0 0.0
2014-Sep-29 22:34N 48°36' W 123°00'0 0.0
2014-Sep-29 21:33N 48°36' W 123°00'0 0.0
2014-Sep-29 20:34N 48°36' W 123°00'0 0.0
2014-Sep-29 19:33N 48°36' W 123°00'0 0.0
2014-Sep-29 18:32N 48°36' W 123°00'0 0.0
2014-Sep-29 17:33N 48°36' W 123°00'0 0.0
2014-Sep-29 16:33N 48°36' W 123°00'0 0.0
2014-Sep-29 15:34N 48°36' W 123°00'0 0.0
2014-Sep-29 14:33N 48°36' W 123°00'0 0.0
2014-Sep-29 13:34N 48°36' W 123°00'0 0.0
2014-Sep-29 12:33N 48°36' W 123°00'0 0.0
2014-Sep-29 11:34N 48°36' W 123°00'0 0.0
2014-Sep-29 10:33N 48°36' W 123°00'0 0.0
2014-Sep-29 09:34N 48°36' W 123°00'0 0.0
2014-Sep-29 08:33N 48°36' W 123°00'0 0.0
2014-Sep-29 07:33N 48°36' W 123°00'0 0.0
2014-Sep-29 06:34N 48°36' W 123°00'0 0.0
2014-Sep-29 05:33N 48°36' W 123°00'0 0.0
2014-Sep-29 04:34N 48°36' W 123°00'0 0.0
2014-Sep-29 03:33N 48°36' W 123°00'0 0.0
2014-Sep-29 02:34N 48°36' W 123°00'0 0.0
2014-Sep-29 01:34N 48°36' W 123°00'0 0.0
2014-Sep-29 00:33N 48°36' W 123°00'0 0.0
2014-Sep-28 23:33N 48°36' W 123°00'0 0.0
2014-Sep-28 22:33N 48°36' W 123°00'0 0.1
2014-Sep-28 21:33N 48°36' W 123°00'0 0.0
2014-Sep-28 20:33N 48°36' W 123°00'0 0.0
2014-Sep-28 19:33N 48°36' W 123°00'1 0.8
2014-Sep-28 18:33N 48°36' W 123°02'2 1.7
2014-Sep-28 17:33N 48°38' W 123°02'2 2.1
2014-Sep-28 16:33N 48°40' W 123°00'2 1.6
2014-Sep-28 15:33N 48°41' W 122°59'1 1.3
2014-Sep-28 14:33N 48°43' W 122°59'1 1.3
2014-Sep-28 13:33N 48°44' W 122°60'2 1.8
2014-Sep-28 12:33N 48°45' W 123°02'3 2.8
2014-Sep-28 11:29N 48°43' W 123°06'2 1.9
2014-Sep-28 10:33N 48°43' W 123°08'1 0.9
2014-Sep-28 09:33N 48°44' W 123°09'1 1.3
2014-Sep-28 08:33N 48°45' W 123°10'1 1.1
2014-Sep-28 07:31N 48°46' W 123°11'1 0.9
2014-Sep-28 06:31N 48°46' W 123°12'1 0.8
2014-Sep-28 05:25N 48°47' W 123°13'1 0.6
2014-Sep-28 04:25N 48°47' W 123°14'0 0.3
2014-Sep-28 03:23N 48°47' W 123°14'0 0.0
2014-Sep-28 02:32N 48°47' W 123°14'0 0.0
2014-Sep-28 01:32N 48°47' W 123°14'0 0.0
2014-Sep-28 00:32N 48°47' W 123°14'0 0.0
2014-Sep-27 23:32N 48°47' W 123°14'0 0.0
2014-Sep-27 22:26N 48°47' W 123°14'0 0.0
2014-Sep-27 21:29N 48°47' W 123°14'0 0.0
2014-Sep-27 20:32N 48°47' W 123°14'0 0.0
2014-Sep-27 19:26N 48°47' W 123°14'0 0.1
2014-Sep-27 18:32N 48°47' W 123°14'0 0.0
2014-Sep-27 17:29N 48°47' W 123°14'0 0.0
2014-Sep-27 16:05N 48°47' W 123°14'0 0.0
2014-Sep-27 15:32N 48°47' W 123°14'0 0.0
2014-Sep-27 12:09N 48°47' W 123°14'0 0.1
2014-Sep-27 11:32N 48°47' W 123°14'1 0.9
2014-Sep-27 10:30N 48°48' W 123°15'2 1.1
2014-Sep-27 08:21N 48°49' W 123°18'3 2.3
2014-Sep-27 07:10N 48°51' W 123°22'2 1.6
2014-Sep-27 06:14N 48°51' W 123°24'1 1.3
2014-Sep-27 05:33N 48°52' W 123°25'0 0.2
2014-Sep-27 04:33N 48°52' W 123°25'1 0.6
2014-Sep-27 03:33N 48°52' W 123°26'1 1.3
2014-Sep-27 02:33N 48°53' W 123°27'1 0.8
2014-Sep-27 01:29N 48°54' W 123°28'1 0.7
2014-Sep-27 00:31N 48°54' W 123°29'1 0.6
2014-Sep-26 23:33N 48°55' W 123°29'1 1.0
2014-Sep-26 22:29N 48°55' W 123°30'1 1.1
2014-Sep-26 21:33N 48°56' W 123°32'1 1.1
2014-Sep-26 20:31N 48°57' W 123°33'1 1.3
2014-Sep-26 19:31N 48°58' W 123°34'2 2.0
2014-Sep-26 18:33N 48°60' W 123°36'1 1.3
2014-Sep-26 17:28N 49°01' W 123°37'1 0.8
2014-Sep-26 16:19N 49°01' W 123°38'1 0.8
2014-Sep-26 15:30N 49°02' W 123°39'1 1.0
2014-Sep-26 14:27N 49°03' W 123°40'1 1.4
2014-Sep-26 13:32N 49°04' W 123°40'1 1.3
2014-Sep-26 12:30N 49°05' W 123°42'1 1.3
2014-Sep-26 11:33N 49°06' W 123°43'1 0.9
2014-Sep-26 10:31N 49°07' W 123°43'0 0.2
2014-Sep-26 09:32N 49°07' W 123°43'0 0.0
2014-Sep-26 08:10N 49°07' W 123°43'0 0.0
2014-Sep-26 07:10N 49°07' W 123°43'710.2
2014-Sep-26 06:31N 49°01' W 123°37'1110.2
2014-Sep-26 05:29N 48°53' W 123°27'910.0
2014-Sep-26 04:33N 48°48' W 123°15'1110.9
2014-Sep-26 03:30N 48°44' W 122°59'1010.1
2014-Sep-26 02:33N 48°41' W 122°45'1010.4
2014-Sep-26 01:33N 48°33' W 122°34'9 8.5
2014-Sep-26 00:33N 48°25' W 122°30'1 0.9
2014-Sep-25 23:18N 48°24' W 122°30'0 0.0
2014-Sep-25 22:30N 48°24' W 122°30'15 7.8
2014-Sep-25 20:32N 48°09' W 122°32'1210.9
2014-Sep-25 19:29N 48°02' W 122°19'5 5.1
2014-Sep-25 18:33N 47°59' W 122°13'0 0.0
2014-Sep-25 17:33N 47°59' W 122°13'0 0.0
2014-Sep-25 16:33N 47°59' W 122°13'0 0.0
2014-Sep-25 15:33N 47°59' W 122°13'0 0.0
2014-Sep-25 14:33N 47°59' W 122°13'0 0.0
2014-Sep-25 13:33N 47°59' W 122°13'0 0.0
2014-Sep-25 12:33N 47°59' W 122°13'0 0.0
2014-Sep-25 11:33N 47°59' W 122°13'0 0.0
2014-Sep-25 10:33N 47°59' W 122°13'0 0.0
2014-Sep-25 09:33N 47°59' W 122°13'0 0.0
2014-Sep-25 08:33N 47°59' W 122°13'0 0.0
2014-Sep-25 07:33N 47°59' W 122°13'0 0.0
2014-Sep-25 06:25N 47°59' W 122°13'0 0.0
2014-Sep-25 05:33N 47°59' W 122°13'9 9.1
2014-Sep-25 04:33N 47°52' W 122°22'1211.7
2014-Sep-25 03:33N 47°41' W 122°27'1211.6
2014-Sep-25 02:33N 47°30' W 122°30'1111.3
2014-Sep-25 01:33N 47°18' W 122°33'13 9.1
2014-Sep-25 00:09N 47°10' W 122°47'7 3.5
2014-Sep-24 22:08N 47°05' W 122°55'1 2.3
2014-Sep-24 21:33N 47°07' W 122°55'3 2.1
2014-Sep-24 20:20N 47°09' W 122°54'25 0.6
2014-Sep-23 03:26N 47°25' W 122°25'1 1.7
2014-Sep-23 02:33N 47°27' W 122°25'1 1.4
2014-Sep-23 01:33N 47°28' W 122°26'2 1.5
2014-Sep-23 00:33N 47°30' W 122°27'2 1.5
2014-Sep-22 23:33N 47°31' W 122°27'2 1.9
2014-Sep-22 22:33N 47°33' W 122°28'2 1.9
2014-Sep-22 21:33N 47°35' W 122°28'2 1.9
2014-Sep-22 20:33N 47°37' W 122°29'2 2.2
2014-Sep-22 19:33N 47°39' W 122°29'2 1.8
2014-Sep-22 18:31N 47°41' W 122°30'1 1.5
2014-Sep-22 17:33N 47°42' W 122°30'1 1.5
2014-Sep-22 16:33N 47°43' W 122°29'1 1.1
2014-Sep-22 15:33N 47°44' W 122°28'1 0.5
2014-Sep-22 14:33N 47°45' W 122°28'  

Dump ship's entire track history